Hlavní strana
METAR-TAF:

METAR-TAF

Letiště :

Port of Spain, Trinidad, Trinidad a Tobago

zeměpisná šířka: 10-37N, zeměpisná délka: 061-21W, výška: 12 m

Aktuální stav počasí

Zpráva byla vytvořena před 20 minutami, v 16:25 UTC
Východní vítr 5 kt
Teplota 27°C
Vlhkost vzduchu 100%
Tlak 1012 hPa
Viditelnost: 8000 m
Polojasno ve výšce 1800 ft
slabé dešťové přeháňky

METAR: TTPP 191625Z 09005KT 8000 -SHRA SCT018 27/27 Q1012 RMK SHWR TO NW

Čas: 12:45 (16:45 UTC)

Předpověď počasí

Zpráva byla vytvořena před 6 hodinami a 45 minutami, v 10:00 UTC
Předpověď platná od 19 v 12 UTC do 20 v 12 UTC
Východní vítr 10 kt
Viditelnost 10 km a více
Polojasno ve výšce 2500 ft
Dočasný
od 19 v 14 UTC do 19 v 22 UTC
Viditelnost: 5000 m
Skoro jasno ve výšce 1200 ft, Cumulonimbus.
Oblačno až skoro zataženo ve výšce 1500 ft
dešťové přeháňky
Změna
od 19 v 23 UTC do 20 v 01 UTC
Severní vítr kt
Skoro jasno ve výšce 1800 ft

TAF: TTPP 191000Z 1912/2012 10010KT 9999 SCT025 TEMPO 1914/1922 5000 SHRA FEW012CB BKN015 BECMG 1923/2001 00000KT FEW018

Stav a předpovědi počasí z více než 4 000 letišť (zprávy METAR a TAF).

Červené a žluté tečky na mapě představují dostupné meteorologické stanice.

Když kurzor umístíte na tečku, zobrazí se název stanice.

Pak kliknutím zobrazíte stav a předpověď počasí.

Chcete-li změnit mapu, kliknutím na zelené tlačítko se znaménkem +mapu přiblížíte, kliknutím na zelené tlačítko se znaménkem – mapu oddálíte a kliknutím na zelené šipky přejdete na sousední mapy.


METAR-TAF: